sensor_id;sensor_type;location;lat;lon;timestamp;pressure;altitude;pressure_sealevel;temperature;humidity
47811;BME280;33575;52.600;7.318;2023-02-15T00:01:06;102772.25;;;1.38;86.62
47811;BME280;33575;52.600;7.318;2023-02-15T00:03:37;102770.07;;;1.17;87.10
47811;BME280;33575;52.600;7.318;2023-02-15T00:06:07;102768.02;;;1.08;87.19
47811;BME280;33575;52.600;7.318;2023-02-15T00:08:38;102769.56;;;1.00;87.05
47811;BME280;33575;52.600;7.318;2023-02-15T00:11:10;102769.41;;;0.87;86.95
47811;BME280;33575;52.600;7.318;2023-02-15T00:13:39;102767.12;;;0.82;87.36
47811;BME280;33575;52.600;7.318;2023-02-15T00:16:12;102766.67;;;0.80;87.74
47811;BME280;33575;52.600;7.318;2023-02-15T00:18:40;102765.68;;;0.78;87.78
47811;BME280;33575;52.600;7.318;2023-02-15T00:21:10;102763.70;;;0.80;87.91
47811;BME280;33575;52.600;7.318;2023-02-15T00:23:40;102761.69;;;0.86;88.13
47811;BME280;33575;52.600;7.318;2023-02-15T00:26:12;102758.49;;;0.88;88.62
47811;BME280;33575;52.600;7.318;2023-02-15T00:28:41;102755.84;;;0.89;88.66
47811;BME280;33575;52.600;7.318;2023-02-15T00:31:12;102757.48;;;0.90;88.38
47811;BME280;33575;52.600;7.318;2023-02-15T00:33:42;102760.61;;;0.91;88.18
47811;BME280;33575;52.600;7.318;2023-02-15T00:36:13;102754.07;;;0.95;87.68
47811;BME280;33575;52.600;7.318;2023-02-15T00:38:44;102754.54;;;0.98;87.46
47811;BME280;33575;52.600;7.318;2023-02-15T00:41:14;102752.66;;;0.98;87.50
47811;BME280;33575;52.600;7.318;2023-02-15T00:43:45;102749.56;;;0.95;87.54
47811;BME280;33575;52.600;7.318;2023-02-15T00:46:15;102749.57;;;0.95;87.62
47811;BME280;33575;52.600;7.318;2023-02-15T00:48:45;102751.01;;;0.93;87.25
47811;BME280;33575;52.600;7.318;2023-02-15T00:51:16;102747.66;;;0.93;87.10
47811;BME280;33575;52.600;7.318;2023-02-15T00:53:47;102742.84;;;0.87;87.55
47811;BME280;33575;52.600;7.318;2023-02-15T00:56:17;102743.98;;;0.84;87.76
47811;BME280;33575;52.600;7.318;2023-02-15T00:58:48;102746.17;;;0.80;87.31
47811;BME280;33575;52.600;7.318;2023-02-15T01:01:19;102743.41;;;0.67;87.02
47811;BME280;33575;52.600;7.318;2023-02-15T01:03:49;102742.42;;;0.62;87.47
47811;BME280;33575;52.600;7.318;2023-02-15T01:06:20;102739.25;;;0.59;87.13
47811;BME280;33575;52.600;7.318;2023-02-15T01:08:50;102736.26;;;0.52;87.10
47811;BME280;33575;52.600;7.318;2023-02-15T01:11:22;102730.99;;;0.49;87.11
47811;BME280;33575;52.600;7.318;2023-02-15T01:13:54;102732.87;;;0.48;87.59
47811;BME280;33575;52.600;7.318;2023-02-15T01:16:23;102733.57;;;0.51;87.16
47811;BME280;33575;52.600;7.318;2023-02-15T01:18:52;102735.15;;;0.51;86.67
47811;BME280;33575;52.600;7.318;2023-02-15T01:21:24;102734.27;;;0.54;87.46
47811;BME280;33575;52.600;7.318;2023-02-15T01:23:53;102731.68;;;0.64;87.43
47811;BME280;33575;52.600;7.318;2023-02-15T01:26:23;102726.58;;;0.70;87.97
47811;BME280;33575;52.600;7.318;2023-02-15T01:28:54;102725.21;;;0.75;87.86
47811;BME280;33575;52.600;7.318;2023-02-15T01:31:25;102719.17;;;0.80;88.04
47811;BME280;33575;52.600;7.318;2023-02-15T01:33:55;102718.42;;;0.90;96.19
47811;BME280;33575;52.600;7.318;2023-02-15T01:36:25;102716.21;;;0.91;91.07
47811;BME280;33575;52.600;7.318;2023-02-15T01:38:55;102707.22;;;0.77;89.13
47811;BME280;33575;52.600;7.318;2023-02-15T01:41:26;102702.28;;;0.66;87.56
47811;BME280;33575;52.600;7.318;2023-02-15T01:43:58;102704.67;;;0.48;87.65
47811;BME280;33575;52.600;7.318;2023-02-15T01:46:31;102703.33;;;0.31;88.73
47811;BME280;33575;52.600;7.318;2023-02-15T01:49:01;102701.94;;;0.24;89.08
47811;BME280;33575;52.600;7.318;2023-02-15T01:51:30;102700.48;;;0.19;89.16
47811;BME280;33575;52.600;7.318;2023-02-15T01:54:01;102692.40;;;0.14;89.26
47811;BME280;33575;52.600;7.318;2023-02-15T01:56:32;102696.01;;;0.12;89.44
47811;BME280;33575;52.600;7.318;2023-02-15T01:59:03;102694.32;;;0.12;89.08
47811;BME280;33575;52.600;7.318;2023-02-15T02:01:29;102693.36;;;0.07;88.80
47811;BME280;33575;52.600;7.318;2023-02-15T02:04:04;102692.40;;;0.10;88.74
47811;BME280;33575;52.600;7.318;2023-02-15T02:06:29;102688.16;;;0.14;88.79
47811;BME280;33575;52.600;7.318;2023-02-15T02:09:00;102692.02;;;0.19;88.04
47811;BME280;33575;52.600;7.318;2023-02-15T02:11:29;102692.36;;;0.19;87.37
47811;BME280;33575;52.600;7.318;2023-02-15T02:14:00;102685.30;;;0.16;88.06
47811;BME280;33575;52.600;7.318;2023-02-15T02:16:39;102680.84;;;0.20;88.36
47811;BME280;33575;52.600;7.318;2023-02-15T02:21:42;102678.86;;;0.24;88.43
47811;BME280;33575;52.600;7.318;2023-02-15T02:24:18;102676.79;;;0.17;88.64
47811;BME280;33575;52.600;7.318;2023-02-15T02:26:49;102675.06;;;0.14;88.71
47811;BME280;33575;52.600;7.318;2023-02-15T02:31:44;102665.94;;;0.11;88.83
47811;BME280;33575;52.600;7.318;2023-02-15T02:34:08;102663.32;;;0.11;88.95
47811;BME280;33575;52.600;7.318;2023-02-15T02:36:41;102656.51;;;0.11;89.00
47811;BME280;33575;52.600;7.318;2023-02-15T02:39:13;102654.17;;;0.14;88.63
47811;BME280;33575;52.600;7.318;2023-02-15T02:41:42;102649.83;;;0.15;88.64
47811;BME280;33575;52.600;7.318;2023-02-15T02:44:12;102643.95;;;0.13;88.47
47811;BME280;33575;52.600;7.318;2023-02-15T02:46:42;102641.33;;;0.13;88.12
47811;BME280;33575;52.600;7.318;2023-02-15T02:49:07;102641.80;;;0.11;87.90
47811;BME280;33575;52.600;7.318;2023-02-15T02:51:38;102644.79;;;0.09;87.81
47811;BME280;33575;52.600;7.318;2023-02-15T02:54:09;102647.92;;;0.09;87.86
47811;BME280;33575;52.600;7.318;2023-02-15T02:56:43;102645.94;;;0.12;86.93
47811;BME280;33575;52.600;7.318;2023-02-15T02:59:15;102643.03;;;0.11;86.86
47811;BME280;33575;52.600;7.318;2023-02-15T03:01:43;102649.86;;;0.18;87.15
47811;BME280;33575;52.600;7.318;2023-02-15T03:04:12;102655.28;;;0.25;86.75
47811;BME280;33575;52.600;7.318;2023-02-15T03:06:44;102653.49;;;0.27;86.87
47811;BME280;33575;52.600;7.318;2023-02-15T03:09:14;102653.63;;;0.34;86.63
47811;BME280;33575;52.600;7.318;2023-02-15T03:11:43;102652.85;;;0.35;86.06
47811;BME280;33575;52.600;7.318;2023-02-15T03:14:13;102644.10;;;0.35;87.04
47811;BME280;33575;52.600;7.318;2023-02-15T03:16:43;102644.29;;;0.43;87.54
47811;BME280;33575;52.600;7.318;2023-02-15T03:19:15;102642.07;;;0.53;87.65
47811;BME280;33575;52.600;7.318;2023-02-15T03:21:45;102639.17;;;0.70;94.62
47811;BME280;33575;52.600;7.318;2023-02-15T03:24:15;102634.59;;;0.57;89.99
47811;BME280;33575;52.600;7.318;2023-02-15T03:26:47;102630.36;;;0.42;88.72
47811;BME280;33575;52.600;7.318;2023-02-15T03:29:16;102634.59;;;0.20;88.08
47811;BME280;33575;52.600;7.318;2023-02-15T03:31:49;102632.53;;;0.03;88.06
47811;BME280;33575;52.600;7.318;2023-02-15T03:34:15;102633.98;;;-0.08;88.18
47811;BME280;33575;52.600;7.318;2023-02-15T03:36:50;102633.10;;;-0.16;88.53
47811;BME280;33575;52.600;7.318;2023-02-15T03:39:19;102627.93;;;-0.21;88.26
47811;BME280;33575;52.600;7.318;2023-02-15T03:41:54;102624.04;;;-0.27;88.34
47811;BME280;33575;52.600;7.318;2023-02-15T03:44:24;102620.10;;;-0.31;88.59
47811;BME280;33575;52.600;7.318;2023-02-15T03:46:52;102616.55;;;-0.34;88.86
47811;BME280;33575;52.600;7.318;2023-02-15T03:49:22;102620.33;;;-0.33;89.40
47811;BME280;33575;52.600;7.318;2023-02-15T03:51:50;102620.21;;;-0.27;89.49
47811;BME280;33575;52.600;7.318;2023-02-15T03:54:22;102615.47;;;-0.20;89.39
47811;BME280;33575;52.600;7.318;2023-02-15T03:56:49;102616.40;;;-0.11;89.17
47811;BME280;33575;52.600;7.318;2023-02-15T03:59:19;102618.33;;;-0.05;87.71
47811;BME280;33575;52.600;7.318;2023-02-15T04:01:57;102621.12;;;-0.12;86.33
47811;BME280;33575;52.600;7.318;2023-02-15T04:04:21;102620.67;;;-0.19;86.37
47811;BME280;33575;52.600;7.318;2023-02-15T04:06:50;102622.70;;;-0.22;86.04
47811;BME280;33575;52.600;7.318;2023-02-15T04:09:21;102618.56;;;-0.20;86.91
47811;BME280;33575;52.600;7.318;2023-02-15T04:11:51;102619.49;;;-0.21;87.78
47811;BME280;33575;52.600;7.318;2023-02-15T04:14:21;102618.22;;;-0.22;87.94
47811;BME280;33575;52.600;7.318;2023-02-15T04:16:52;102619.76;;;-0.24;88.36
47811;BME280;33575;52.600;7.318;2023-02-15T04:19:22;102617.90;;;-0.24;88.50
47811;BME280;33575;52.600;7.318;2023-02-15T04:21:52;102617.85;;;-0.25;88.50
47811;BME280;33575;52.600;7.318;2023-02-15T04:24:23;102617.93;;;-0.23;88.29
47811;BME280;33575;52.600;7.318;2023-02-15T04:26:53;102617.00;;;-0.23;88.04
47811;BME280;33575;52.600;7.318;2023-02-15T04:29:25;102617.43;;;-0.26;88.16
47811;BME280;33575;52.600;7.318;2023-02-15T04:31:55;102615.30;;;-0.27;88.31
47811;BME280;33575;52.600;7.318;2023-02-15T04:34:24;102615.70;;;-0.26;88.16
47811;BME280;33575;52.600;7.318;2023-02-15T04:36:54;102613.44;;;-0.20;88.03
47811;BME280;33575;52.600;7.318;2023-02-15T04:39:25;102616.34;;;-0.15;87.83
47811;BME280;33575;52.600;7.318;2023-02-15T04:41:56;102617.78;;;-0.11;87.68
47811;BME280;33575;52.600;7.318;2023-02-15T04:44:26;102614.56;;;-0.08;87.83
47811;BME280;33575;52.600;7.318;2023-02-15T04:46:57;102610.74;;;-0.03;87.78
47811;BME280;33575;52.600;7.318;2023-02-15T04:49:28;102606.53;;;0.06;88.20
47811;BME280;33575;52.600;7.318;2023-02-15T04:51:58;102607.86;;;0.18;88.20
47811;BME280;33575;52.600;7.318;2023-02-15T04:54:29;102605.59;;;0.33;96.05
47811;BME280;33575;52.600;7.318;2023-02-15T04:56:59;102602.98;;;0.31;90.46
47811;BME280;33575;52.600;7.318;2023-02-15T04:59:30;102600.95;;;0.17;89.18
47811;BME280;33575;52.600;7.318;2023-02-15T05:02:00;102598.05;;;-0.02;88.62
47811;BME280;33575;52.600;7.318;2023-02-15T05:04:31;102596.29;;;-0.19;88.72
47811;BME280;33575;52.600;7.318;2023-02-15T05:07:01;102595.79;;;-0.30;88.67
47811;BME280;33575;52.600;7.318;2023-02-15T05:09:31;102595.05;;;-0.37;88.95
47811;BME280;33575;52.600;7.318;2023-02-15T05:12:02;102596.49;;;-0.44;89.13
47811;BME280;33575;52.600;7.318;2023-02-15T05:14:32;102591.48;;;-0.47;89.18
47811;BME280;33575;52.600;7.318;2023-02-15T05:17:03;102586.87;;;-0.51;89.22
47811;BME280;33575;52.600;7.318;2023-02-15T05:19:33;102586.15;;;-0.52;89.33
47811;BME280;33575;52.600;7.318;2023-02-15T05:22:03;102585.35;;;-0.54;89.38
47811;BME280;33575;52.600;7.318;2023-02-15T05:24:33;102589.19;;;-0.51;89.47
47811;BME280;33575;52.600;7.318;2023-02-15T05:27:04;102587.13;;;-0.47;88.88
47811;BME280;33575;52.600;7.318;2023-02-15T05:29:35;102582.42;;;-0.45;88.59
47811;BME280;33575;52.600;7.318;2023-02-15T05:32:06;102577.01;;;-0.41;88.69
47811;BME280;33575;52.600;7.318;2023-02-15T05:34:36;102576.88;;;-0.37;88.05
47811;BME280;33575;52.600;7.318;2023-02-15T05:37:06;102567.01;;;-0.34;88.34
47811;BME280;33575;52.600;7.318;2023-02-15T05:39:36;102567.45;;;-0.35;88.25
47811;BME280;33575;52.600;7.318;2023-02-15T05:42:07;102567.64;;;-0.37;88.59
47811;BME280;33575;52.600;7.318;2023-02-15T05:44:38;102564.27;;;-0.38;88.56
47811;BME280;33575;52.600;7.318;2023-02-15T05:47:08;102555.81;;;-0.40;88.62
47811;BME280;33575;52.600;7.318;2023-02-15T05:49:39;102554.64;;;-0.42;88.48
47811;BME280;33575;52.600;7.318;2023-02-15T05:52:09;102552.69;;;-0.45;88.40
47811;BME280;33575;52.600;7.318;2023-02-15T05:54:40;102553.84;;;-0.48;88.84
47811;BME280;33575;52.600;7.318;2023-02-15T05:57:10;102550.08;;;-0.49;88.57
47811;BME280;33575;52.600;7.318;2023-02-15T05:59:40;102544.21;;;-0.47;87.92
47811;BME280;33575;52.600;7.318;2023-02-15T06:02:11;102546.42;;;-0.46;87.23
47811;BME280;33575;52.600;7.318;2023-02-15T06:04:42;102548.10;;;-0.48;87.61
47811;BME280;33575;52.600;7.318;2023-02-15T06:07:14;102544.83;;;-0.44;87.49
47811;BME280;33575;52.600;7.318;2023-02-15T06:09:42;102546.51;;;-0.37;87.71
47811;BME280;33575;52.600;7.318;2023-02-15T06:12:13;102547.62;;;-0.31;87.41
47811;BME280;33575;52.600;7.318;2023-02-15T06:14:43;102549.09;;;-0.26;87.98
47811;BME280;33575;52.600;7.318;2023-02-15T06:17:14;102548.46;;;-0.12;95.94
47811;BME280;33575;52.600;7.318;2023-02-15T06:19:43;102545.03;;;-0.08;91.31
47811;BME280;33575;52.600;7.318;2023-02-15T06:22:14;102546.23;;;-0.20;89.45
47811;BME280;33575;52.600;7.318;2023-02-15T06:24:44;102545.48;;;-0.33;88.40
47811;BME280;33575;52.600;7.318;2023-02-15T06:27:15;102547.87;;;-0.48;87.96
47811;BME280;33575;52.600;7.318;2023-02-15T06:29:45;102548.49;;;-0.63;88.77
47811;BME280;33575;52.600;7.318;2023-02-15T06:32:15;102549.24;;;-0.67;88.50
47811;BME280;33575;52.600;7.318;2023-02-15T06:34:47;102548.55;;;-0.72;88.62
47811;BME280;33575;52.600;7.318;2023-02-15T06:37:17;102543.96;;;-0.77;88.51
47811;BME280;33575;52.600;7.318;2023-02-15T06:39:47;102543.98;;;-0.86;88.72
47811;BME280;33575;52.600;7.318;2023-02-15T06:42:18;102549.91;;;-0.90;88.58
47811;BME280;33575;52.600;7.318;2023-02-15T06:44:49;102550.51;;;-0.93;88.94
47811;BME280;33575;52.600;7.318;2023-02-15T06:47:19;102553.19;;;-0.87;88.87
47811;BME280;33575;52.600;7.318;2023-02-15T06:49:49;102551.66;;;-0.81;88.49
47811;BME280;33575;52.600;7.318;2023-02-15T06:52:20;102554.91;;;-0.75;88.60
47811;BME280;33575;52.600;7.318;2023-02-15T06:54:51;102556.59;;;-0.70;88.33
47811;BME280;33575;52.600;7.318;2023-02-15T06:57:21;102555.00;;;-0.68;88.63
47811;BME280;33575;52.600;7.318;2023-02-15T06:59:52;102554.39;;;-0.67;88.54
47811;BME280;33575;52.600;7.318;2023-02-15T07:02:22;102553.22;;;-0.68;88.69
47811;BME280;33575;52.600;7.318;2023-02-15T07:04:53;102555.31;;;-0.67;88.83
47811;BME280;33575;52.600;7.318;2023-02-15T07:07:23;102550.71;;;-0.69;88.85
47811;BME280;33575;52.600;7.318;2023-02-15T07:09:53;102548.33;;;-0.69;88.86
47811;BME280;33575;52.600;7.318;2023-02-15T07:12:24;102544.81;;;-0.70;89.38
47811;BME280;33575;52.600;7.318;2023-02-15T07:14:54;102542.92;;;-0.69;89.25
47811;BME280;33575;52.600;7.318;2023-02-15T07:17:29;102541.56;;;-0.69;89.51
47811;BME280;33575;52.600;7.318;2023-02-15T07:19:55;102539.66;;;-0.67;89.74
47811;BME280;33575;52.600;7.318;2023-02-15T07:22:25;102534.60;;;-0.66;89.03
47811;BME280;33575;52.600;7.318;2023-02-15T07:24:56;102535.37;;;-0.66;88.97
47811;BME280;33575;52.600;7.318;2023-02-15T07:27:26;102533.23;;;-0.65;88.93
47811;BME280;33575;52.600;7.318;2023-02-15T07:29:57;102531.60;;;-0.61;89.31
47811;BME280;33575;52.600;7.318;2023-02-15T07:32:28;102526.78;;;-0.52;89.36
47811;BME280;33575;52.600;7.318;2023-02-15T07:34:58;102524.57;;;-0.44;88.66
47811;BME280;33575;52.600;7.318;2023-02-15T07:37:28;102526.76;;;-0.41;87.23
47811;BME280;33575;52.600;7.318;2023-02-15T07:39:58;102525.52;;;-0.44;86.99
47811;BME280;33575;52.600;7.318;2023-02-15T07:42:30;102523.11;;;-0.45;86.96
47811;BME280;33575;52.600;7.318;2023-02-15T07:44:59;102520.65;;;-0.45;87.99
47811;BME280;33575;52.600;7.318;2023-02-15T07:47:30;102523.01;;;-0.36;88.79
47811;BME280;33575;52.600;7.318;2023-02-15T07:50:00;102522.62;;;-0.26;89.08
47811;BME280;33575;52.600;7.318;2023-02-15T07:52:31;102519.65;;;-0.04;96.56
47811;BME280;33575;52.600;7.318;2023-02-15T07:55:01;102519.76;;;0.06;92.54
47811;BME280;33575;52.600;7.318;2023-02-15T07:57:32;102517.38;;;0.02;89.87
47811;BME280;33575;52.600;7.318;2023-02-15T08:00:04;102512.35;;;-0.06;88.99
47811;BME280;33575;52.600;7.318;2023-02-15T08:02:33;102513.86;;;-0.15;89.94
47811;BME280;33575;52.600;7.318;2023-02-15T08:05:04;102514.83;;;-0.19;91.23
47811;BME280;33575;52.600;7.318;2023-02-15T08:07:34;102517.87;;;-0.16;92.03
47811;BME280;33575;52.600;7.318;2023-02-15T08:10:05;102512.30;;;-0.16;93.51
47811;BME280;33575;52.600;7.318;2023-02-15T08:12:34;102506.22;;;-0.13;93.40
47811;BME280;33575;52.600;7.318;2023-02-15T08:15:05;102505.42;;;-0.11;95.64
47811;BME280;33575;52.600;7.318;2023-02-15T08:17:36;102504.69;;;-0.02;94.31
47811;BME280;33575;52.600;7.318;2023-02-15T08:20:06;102503.35;;;0.09;93.45
47811;BME280;33575;52.600;7.318;2023-02-15T08:22:36;102497.75;;;0.22;93.61
47811;BME280;33575;52.600;7.318;2023-02-15T08:25:06;102497.13;;;0.35;93.55
47811;BME280;33575;52.600;7.318;2023-02-15T08:27:37;102491.54;;;0.48;92.08
47811;BME280;33575;52.600;7.318;2023-02-15T08:30:08;102486.80;;;0.57;92.23
47811;BME280;33575;52.600;7.318;2023-02-15T08:32:37;102486.90;;;0.66;92.81
47811;BME280;33575;52.600;7.318;2023-02-15T08:35:08;102482.73;;;0.76;93.56
47811;BME280;33575;52.600;7.318;2023-02-15T08:37:38;102480.02;;;0.88;93.23
47811;BME280;33575;52.600;7.318;2023-02-15T08:40:09;102479.12;;;0.97;93.13
47811;BME280;33575;52.600;7.318;2023-02-15T08:42:39;102474.77;;;1.06;92.94
47811;BME280;33575;52.600;7.318;2023-02-15T08:45:09;102471.86;;;1.18;92.98
47811;BME280;33575;52.600;7.318;2023-02-15T08:47:39;102469.57;;;1.31;93.01
47811;BME280;33575;52.600;7.318;2023-02-15T08:50:09;102469.42;;;1.44;93.37
47811;BME280;33575;52.600;7.318;2023-02-15T08:52:40;102469.42;;;1.57;93.43
47811;BME280;33575;52.600;7.318;2023-02-15T08:55:10;102468.74;;;1.67;93.77
47811;BME280;33575;52.600;7.318;2023-02-15T08:57:41;102466.64;;;1.73;94.50
47811;BME280;33575;52.600;7.318;2023-02-15T09:00:12;102468.53;;;1.79;94.72
47811;BME280;33575;52.600;7.318;2023-02-15T09:02:42;102468.53;;;1.86;95.26
47811;BME280;33575;52.600;7.318;2023-02-15T09:05:12;102469.11;;;1.98;94.60
47811;BME280;33575;52.600;7.318;2023-02-15T09:07:43;102468.10;;;2.09;95.38
47811;BME280;33575;52.600;7.318;2023-02-15T09:10:13;102466.36;;;2.10;96.34
47811;BME280;33575;52.600;7.318;2023-02-15T09:12:44;102461.25;;;2.17;96.08
47811;BME280;33575;52.600;7.318;2023-02-15T09:15:14;102456.79;;;2.30;95.30
47811;BME280;33575;52.600;7.318;2023-02-15T09:17:44;102457.40;;;2.41;95.25
47811;BME280;33575;52.600;7.318;2023-02-15T09:20:15;102462.68;;;2.49;95.46
47811;BME280;33575;52.600;7.318;2023-02-15T09:22:45;102460.38;;;2.57;96.23
47811;BME280;33575;52.600;7.318;2023-02-15T09:25:16;102463.92;;;2.66;95.66
47811;BME280;33575;52.600;7.318;2023-02-15T09:27:46;102460.45;;;2.78;96.07
47811;BME280;33575;52.600;7.318;2023-02-15T09:30:17;102456.17;;;2.92;95.33
47811;BME280;33575;52.600;7.318;2023-02-15T09:32:48;102453.24;;;3.07;95.01
47811;BME280;33575;52.600;7.318;2023-02-15T09:35:18;102452.83;;;3.22;94.65
47811;BME280;33575;52.600;7.318;2023-02-15T09:37:48;102452.75;;;3.40;95.07
47811;BME280;33575;52.600;7.318;2023-02-15T09:40:18;102453.80;;;3.56;95.05
47811;BME280;33575;52.600;7.318;2023-02-15T09:42:58;102455.46;;;3.73;95.20
47811;BME280;33575;52.600;7.318;2023-02-15T09:45:26;102455.96;;;3.91;95.18
47811;BME280;33575;52.600;7.318;2023-02-15T09:50:23;102454.14;;;4.16;96.23
47811;BME280;33575;52.600;7.318;2023-02-15T09:53:02;102455.10;;;4.13;96.43
47811;BME280;33575;52.600;7.318;2023-02-15T09:55:33;102454.61;;;4.12;95.36
47811;BME280;33575;52.600;7.318;2023-02-15T09:57:56;102451.28;;;4.10;95.79
47811;BME280;33575;52.600;7.318;2023-02-15T10:00:28;102455.11;;;4.21;95.73
47811;BME280;33575;52.600;7.318;2023-02-15T10:03:04;102451.21;;;4.32;98.73
47811;BME280;33575;52.600;7.318;2023-02-15T10:05:29;102442.17;;;4.46;98.67
47811;BME280;33575;52.600;7.318;2023-02-15T10:10:26;102438.11;;;4.86;97.07
47811;BME280;33575;52.600;7.318;2023-02-15T10:13:00;102440.47;;;5.09;98.22
47811;BME280;33575;52.600;7.318;2023-02-15T10:15:29;102433.44;;;5.39;98.36
47811;BME280;33575;52.600;7.318;2023-02-15T10:20:28;102438.37;;;6.00;97.23
47811;BME280;33575;52.600;7.318;2023-02-15T10:23:08;102436.77;;;6.29;96.69
47811;BME280;33575;52.600;7.318;2023-02-15T10:25:32;102435.58;;;6.54;97.35
47811;BME280;33575;52.600;7.318;2023-02-15T10:27:55;102434.55;;;6.85;96.76
47811;BME280;33575;52.600;7.318;2023-02-15T10:30:31;102431.66;;;7.16;95.62
47811;BME280;33575;52.600;7.318;2023-02-15T10:33:00;102438.09;;;7.48;93.79
47811;BME280;33575;52.600;7.318;2023-02-15T10:35:31;102434.36;;;7.69;92.34
47811;BME280;33575;52.600;7.318;2023-02-15T10:38:07;102436.18;;;7.83;92.15
47811;BME280;33575;52.600;7.318;2023-02-15T10:40:32;102435.34;;;7.95;92.48
47811;BME280;33575;52.600;7.318;2023-02-15T10:43:08;102429.60;;;8.12;89.95
47811;BME280;33575;52.600;7.318;2023-02-15T10:45:30;102424.50;;;8.25;90.04
47811;BME280;33575;52.600;7.318;2023-02-15T10:48:06;102421.89;;;8.41;89.08
47811;BME280;33575;52.600;7.318;2023-02-15T10:50:42;102421.41;;;8.36;87.37
47811;BME280;33575;52.600;7.318;2023-02-15T10:53:09;102417.69;;;8.19;86.31
47811;BME280;33575;52.600;7.318;2023-02-15T10:55:39;102417.65;;;8.07;87.21
47811;BME280;33575;52.600;7.318;2023-02-15T10:58:07;102417.40;;;8.02;86.84
47811;BME280;33575;52.600;7.318;2023-02-15T11:00:36;102419.46;;;8.10;88.44
47811;BME280;33575;52.600;7.318;2023-02-15T11:03:15;102413.88;;;7.96;87.62
47811;BME280;33575;52.600;7.318;2023-02-15T11:05:41;102411.65;;;7.94;86.67
47811;BME280;33575;52.600;7.318;2023-02-15T11:08:05;102413.56;;;8.18;89.80
47811;BME280;33575;52.600;7.318;2023-02-15T11:10:35;102416.68;;;8.37;88.99
47811;BME280;33575;52.600;7.318;2023-02-15T11:13:09;102412.63;;;8.52;87.05
47811;BME280;33575;52.600;7.318;2023-02-15T11:15:36;102414.00;;;8.48;87.10
47811;BME280;33575;52.600;7.318;2023-02-15T11:18:10;102412.75;;;8.52;87.37
47811;BME280;33575;52.600;7.318;2023-02-15T11:20:38;102407.99;;;8.46;86.09
47811;BME280;33575;52.600;7.318;2023-02-15T11:23:13;102408.95;;;8.46;86.91
47811;BME280;33575;52.600;7.318;2023-02-15T11:25:36;102409.02;;;8.46;86.60
47811;BME280;33575;52.600;7.318;2023-02-15T11:28:13;102404.13;;;8.51;86.62
47811;BME280;33575;52.600;7.318;2023-02-15T11:30:42;102402.26;;;8.53;86.53
47811;BME280;33575;52.600;7.318;2023-02-15T11:33:15;102399.60;;;8.68;86.45
47811;BME280;33575;52.600;7.318;2023-02-15T11:35:42;102395.73;;;8.71;86.41
47811;BME280;33575;52.600;7.318;2023-02-15T11:38:14;102389.82;;;8.84;86.47
47811;BME280;33575;52.600;7.318;2023-02-15T11:40:43;102389.22;;;8.90;86.23
47811;BME280;33575;52.600;7.318;2023-02-15T11:43:15;102384.56;;;8.97;85.75
47811;BME280;33575;52.600;7.318;2023-02-15T11:45:41;102383.23;;;9.04;85.90
47811;BME280;33575;52.600;7.318;2023-02-15T11:48:12;102379.94;;;9.15;86.11
47811;BME280;33575;52.600;7.318;2023-02-15T11:50:42;102374.63;;;9.28;86.30
47811;BME280;33575;52.600;7.318;2023-02-15T11:53:13;102368.48;;;9.40;86.12
47811;BME280;33575;52.600;7.318;2023-02-15T11:55:42;102362.10;;;9.46;84.77
47811;BME280;33575;52.600;7.318;2023-02-15T11:58:21;102354.88;;;9.56;85.52
47811;BME280;33575;52.600;7.318;2023-02-15T12:00:43;102350.91;;;9.60;84.81
47811;BME280;33575;52.600;7.318;2023-02-15T12:03:17;102351.81;;;9.67;84.35
47811;BME280;33575;52.600;7.318;2023-02-15T12:05:45;102345.38;;;9.74;84.41
47811;BME280;33575;52.600;7.318;2023-02-15T12:08:16;102347.89;;;9.83;84.33
47811;BME280;33575;52.600;7.318;2023-02-15T12:10:51;102345.23;;;9.81;82.39
47811;BME280;33575;52.600;7.318;2023-02-15T12:13:15;102337.12;;;9.87;83.12
47811;BME280;33575;52.600;7.318;2023-02-15T12:15:45;102334.16;;;9.88;83.24
47811;BME280;33575;52.600;7.318;2023-02-15T12:18:19;102331.96;;;9.94;83.30
47811;BME280;33575;52.600;7.318;2023-02-15T12:20:44;102331.16;;;9.90;82.75
47811;BME280;33575;52.600;7.318;2023-02-15T12:23:15;102327.39;;;10.00;83.45
47811;BME280;33575;52.600;7.318;2023-02-15T12:25:51;102323.17;;;10.12;82.69
47811;BME280;33575;52.600;7.318;2023-02-15T12:28:25;102321.04;;;10.23;83.20
47811;BME280;33575;52.600;7.318;2023-02-15T12:30:46;102320.91;;;10.29;82.64
47811;BME280;33575;52.600;7.318;2023-02-15T12:33:25;102324.05;;;10.36;81.65
47811;BME280;33575;52.600;7.318;2023-02-15T12:35:47;102327.38;;;10.43;81.96
47811;BME280;33575;52.600;7.318;2023-02-15T12:38:23;102325.38;;;10.46;81.16
47811;BME280;33575;52.600;7.318;2023-02-15T12:40:57;102317.45;;;10.52;81.92
47811;BME280;33575;52.600;7.318;2023-02-15T12:43:25;102315.33;;;10.58;82.24
47811;BME280;33575;52.600;7.318;2023-02-15T12:45:49;102311.99;;;10.68;81.93
47811;BME280;33575;52.600;7.318;2023-02-15T12:48:20;102312.58;;;10.77;81.03
47811;BME280;33575;52.600;7.318;2023-02-15T12:51:06;102313.66;;;10.85;80.93
47811;BME280;33575;52.600;7.318;2023-02-15T12:53:22;102312.98;;;10.96;81.70
47811;BME280;33575;52.600;7.318;2023-02-15T12:55:52;102303.12;;;11.03;80.86
47811;BME280;33575;52.600;7.318;2023-02-15T12:58:22;102297.10;;;10.97;79.27
47811;BME280;33575;52.600;7.318;2023-02-15T13:03:22;102303.80;;;11.03;79.16
47811;BME280;33575;52.600;7.318;2023-02-15T13:05:54;102301.81;;;11.01;80.34
47811;BME280;33575;52.600;7.318;2023-02-15T13:08:28;102298.60;;;11.03;79.61
47811;BME280;33575;52.600;7.318;2023-02-15T13:10:55;102289.43;;;11.00;78.33
47811;BME280;33575;52.600;7.318;2023-02-15T13:13:26;102291.02;;;11.00;79.49
47811;BME280;33575;52.600;7.318;2023-02-15T13:15:58;102289.07;;;11.05;79.64
47811;BME280;33575;52.600;7.318;2023-02-15T13:18:31;102285.49;;;10.98;78.73
47811;BME280;33575;52.600;7.318;2023-02-15T13:20:55;102288.64;;;11.06;78.73
47811;BME280;33575;52.600;7.318;2023-02-15T13:23:28;102286.92;;;11.12;79.18
47811;BME280;33575;52.600;7.318;2023-02-15T13:25:58;102286.39;;;11.19;79.54